Time;durP1;ratioP1;P1;durP2;ratioP2;P2;SDS_P1;SDS_P2;PMS_P1;PMS_P2;Temp;Humidity;BMP_temperature;BMP_pressure;BME280_temperature;BME280_humidity;BME280_pressure;Samples;Min_cycle;Max_cycle;Signal;HPM_P1;HPM_P2
2021/12/24 00:03:10;;;;;;;20.92;13.63;;;;;;;3.37;73.79;96484.84;9882924;30;20051;-77
2021/12/24 00:08:31;;;;;;;23.42;13.80;;;;;;;3.41;73.69;96495.47;9870092;30;20111;-77
2021/12/24 00:13:53;;;;;;;22.25;13.13;;;;;;;3.42;74.05;96492.13;9894541;30;20066;-77
2021/12/24 00:19:36;;;;;;;21.75;14.93;;;;;;;3.46;74.33;96494.44;9894816;30;20043;-77
2021/12/24 00:36:16;;;;;;;19.38;14.13;;;;;;;3.61;74.77;96480.41;9894328;30;20059;-77
2021/12/24 00:41:37;;;;;;;22.38;15.27;;;;;;;3.69;75.29;96485.78;9894178;30;20055;-77
2021/12/24 00:46:58;;;;;;;22.60;14.73;;;;;;;3.77;74.93;96474.63;9882018;30;20065;-77
2021/12/24 00:52:33;;;;;;;20.30;14.10;;;;;;;3.80;75.15;96476.94;9894219;30;20058;-77
2021/12/24 00:58:02;;;;;;;24.02;14.65;;;;;;;3.87;75.22;96480.88;9893805;30;20055;-77
2021/12/24 01:03:23;;;;;;;22.75;14.82;;;;;;;3.96;75.36;96485.69;9881531;30;20544;-77
2021/12/24 01:08:45;;;;;;;23.05;14.75;;;;;;;3.99;76.23;96456.91;9869151;30;20051;-77
2021/12/24 01:14:05;;;;;;;21.02;13.82;;;;;;;4.04;76.20;96458.63;9881682;30;20109;-77
2021/12/24 01:19:27;;;;;;;20.38;13.32;;;;;;;4.10;76.40;96450.78;9881748;30;20047;-77
2021/12/24 01:25:02;;;;;;;22.33;13.85;;;;;;;4.16;76.67;96448.47;9881169;30;20463;-77
2021/12/24 01:47:11;;;;;;;18.52;11.88;;;;;;;4.27;77.58;96411.97;9882033;30;20589;-78
2021/12/24 01:52:32;;;;;;;16.23;11.13;;;;;;;4.31;77.91;96397.69;9875387;30;20051;-78
2021/12/24 01:57:53;;;;;;;18.15;12.65;;;;;;;4.35;78.22;96392.47;9862962;30;20130;-78
2021/12/24 02:03:14;;;;;;;18.27;11.90;;;;;;;4.41;77.81;96367.28;9864855;30;20101;-78
2021/12/24 02:08:37;;;;;;;16.02;10.90;;;;;;;4.44;78.20;96339.22;9864756;30;20478;-77
2021/12/24 02:14:02;;;;;;;17.25;11.27;;;;;;;4.48;78.72;96320.13;9876748;30;20458;-77
2021/12/24 02:30:43;;;;;;;15.15;10.45;;;;;;;4.68;78.75;96290.38;9898449;30;20115;-78
2021/12/24 02:36:05;;;;;;;18.90;11.00;;;;;;;4.73;78.92;96324.50;9885614;30;20130;-78
2021/12/24 02:41:26;;;;;;;14.18;9.88;;;;;;;4.80;79.42;96301.50;9897590;30;20043;-78
2021/12/24 02:57:59;;;;;;;13.30;8.17;;;;;;;5.06;79.46;96310.81;9897133;30;20444;-77
2021/12/24 03:03:26;;;;;;;13.23;8.45;;;;;;;5.10;79.42;96297.22;9884750;30;20365;-78
2021/12/24 03:08:49;;;;;;;8.82;6.30;;;;;;;5.14;79.72;96284.41;9884827;30;20055;-78
2021/12/24 03:14:10;;;;;;;10.25;6.53;;;;;;;5.22;79.85;96291.78;9896783;30;20384;-78
2021/12/24 03:19:33;;;;;;;8.13;5.63;;;;;;;5.28;79.97;96284.56;9871903;30;20134;-78
2021/12/24 03:24:58;;;;;;;10.90;6.25;;;;;;;5.31;80.03;96286.19;9872207;30;20074;-78
2021/12/24 03:30:19;;;;;;;8.88;6.57;;;;;;;5.34;80.43;96284.97;9883648;30;20059;-78
2021/12/24 03:35:40;;;;;;;10.75;5.60;;;;;;;5.41;80.34;96272.97;9883529;30;20086;-78
2021/12/24 03:41:02;;;;;;;7.22;5.07;;;;;;;5.44;80.26;96269.00;9895766;30;20051;-78
2021/12/24 03:46:33;;;;;;;6.28;4.47;;;;;;;5.51;80.29;96274.94;9882754;30;20108;-78
2021/12/24 03:52:02;;;;;;;5.82;4.28;;;;;;;5.58;80.23;96271.22;9884010;30;20051;-78
2021/12/24 03:57:39;;;;;;;6.32;4.20;;;;;;;5.62;80.18;96271.50;9871507;30;20055;-78
2021/12/24 04:03:07;;;;;;;4.70;3.58;;;;;;;5.65;80.22;96267.50;9896402;30;20051;-78
2021/12/24 04:08:34;;;;;;;5.50;3.35;;;;;;;5.71;80.04;96276.94;9895799;30;20081;-78
2021/12/24 04:14:05;;;;;;;3.95;3.00;;;;;;;5.75;80.64;96277.16;9885053;30;20047;-78
2021/12/24 04:24:59;;;;;;;3.30;2.67;;;;;;;5.83;80.68;96292.84;9896155;30;20065;-78
2021/12/24 04:30:26;;;;;;;3.75;2.40;;;;;;;5.85;80.72;96282.63;9882806;30;20062;-78
2021/12/24 05:01:16;;;;;;;2.83;1.65;;;;;;;6.09;80.05;96274.41;9894861;30;20055;-78
2021/12/24 05:04:24;;;;;;;2.10;1.70;;;;;;;6.12;80.29;96278.72;9857868;30;20055;-78
2021/12/24 05:09:45;;;;;;;2.22;1.70;;;;;;;6.16;80.01;96265.09;9850793;30;20059;-78
2021/12/24 05:15:11;;;;;;;2.47;1.80;;;;;;;6.20;80.44;96252.25;9827196;30;20475;-78
2021/12/24 05:26:38;;;;;;;2.90;1.52;;;;;;;6.28;80.18;96263.81;9875351;30;20050;-79
2021/12/24 05:31:59;;;;;;;2.80;1.50;;;;;;;6.30;80.01;96261.16;9888491;30;20052;-79
2021/12/24 05:37:21;;;;;;;3.22;1.80;;;;;;;6.34;80.54;96268.25;9876263;30;20079;-79
2021/12/24 05:42:42;;;;;;;2.75;1.70;;;;;;;6.33;80.30;96259.22;9875213;30;20545;-79
2021/12/24 05:48:04;;;;;;;2.15;1.80;;;;;;;6.41;80.08;96262.47;9852126;30;20052;-78
2021/12/24 05:53:25;;;;;;;2.88;2.00;;;;;;;6.48;79.93;96272.59;9886840;30;20055;-78
2021/12/24 05:58:55;;;;;;;2.83;2.05;;;;;;;6.49;79.99;96265.72;9876490;30;20047;-78
2021/12/24 06:04:16;;;;;;;3.17;1.98;;;;;;;6.50;80.00;96269.94;9886664;30;20104;-79
2021/12/24 06:09:38;;;;;;;3.33;1.90;;;;;;;6.61;80.14;96265.72;9911432;30;20055;-79
2021/12/24 06:15:04;;;;;;;3.63;1.85;;;;;;;6.67;79.65;96257.78;9898471;29;20111;-79
2021/12/24 06:20:26;;;;;;;3.33;2.03;;;;;;;6.73;79.94;96238.69;9899676;30;20055;-78
2021/12/24 06:25:52;;;;;;;3.90;2.10;;;;;;;6.73;80.01;96240.75;9885891;30;20414;-78
2021/12/24 06:31:13;;;;;;;2.28;1.80;;;;;;;6.76;79.88;96253.41;9885640;30;20457;-78
2021/12/24 06:36:37;;;;;;;2.85;2.05;;;;;;;6.80;79.97;96250.88;9887029;30;20051;-79
2021/12/24 06:41:59;;;;;;;4.70;2.35;;;;;;;6.85;79.81;96260.84;9892849;30;20509;-78
2021/12/24 06:47:21;;;;;;;5.30;2.70;;;;;;;6.88;80.21;96265.22;9880709;30;20055;-78
2021/12/24 06:52:42;;;;;;;4.28;2.28;;;;;;;6.93;80.11;96272.41;9848403;30;20403;-79
2021/12/24 06:58:03;;;;;;;2.92;2.33;;;;;;;6.97;79.97;96281.00;9872910;30;20146;-78
2021/12/24 07:03:26;;;;;;;4.80;2.55;;;;;;;7.06;79.71;96279.41;9859944;30;20204;-78
2021/12/24 07:08:48;;;;;;;4.32;2.40;;;;;;;7.11;79.58;96308.81;9860351;30;20051;-78
2021/12/24 07:14:09;;;;;;;3.92;2.67;;;;;;;7.09;79.24;96309.44;9847561;30;20140;-78
2021/12/24 07:19:31;;;;;;;4.25;2.92;;;;;;;7.15;79.68;96298.69;9860337;30;20044;-78
2021/12/24 07:24:52;;;;;;;6.50;2.88;;;;;;;7.18;79.49;96303.03;9858649;30;20481;-78
2021/12/24 07:30:14;;;;;;;4.82;2.75;;;;;;;7.24;79.38;96301.91;9859686;30;20067;-78
2021/12/24 07:35:35;;;;;;;4.03;3.05;;;;;;;7.30;79.12;96302.25;9846902;30;20376;-79
2021/12/24 07:40:56;;;;;;;3.55;2.58;;;;;;;7.32;78.88;96283.66;9858868;30;20048;-78
2021/12/24 07:46:16;;;;;;;5.18;2.75;;;;;;;7.35;78.86;96290.78;9846846;30;20048;-80
2021/12/24 07:57:17;;;;;;;4.60;2.90;;;;;;;7.53;78.36;96304.22;9858331;30;20135;-78
2021/12/24 08:02:38;;;;;;;4.07;2.70;;;;;;;7.63;78.54;96308.31;9858187;30;20058;-78
2021/12/24 08:08:00;;;;;;;3.13;1.85;;;;;;;7.73;78.39;96316.50;9845837;30;20048;-78
2021/12/24 08:13:21;;;;;;;2.92;2.10;;;;;;;7.73;77.91;96319.25;9858171;30;20071;-78
2021/12/24 08:18:45;;;;;;;3.42;2.25;;;;;;;7.74;77.70;96315.88;9857953;30;20044;-78
2021/12/24 08:24:06;;;;;;;3.87;2.40;;;;;;;7.81;77.57;96307.84;9858402;30;20044;-78
2021/12/24 08:29:28;;;;;;;3.17;2.13;;;;;;;8.10;77.28;96296.22;9846340;30;20130;-78
2021/12/24 08:34:51;;;;;;;2.97;1.88;;;;;;;8.62;75.89;96306.66;9857652;30;20484;-78
2021/12/24 08:40:12;;;;;;;4.22;1.85;;;;;;;9.87;73.62;96316.28;9864857;30;20066;-78
2021/12/24 08:45:33;;;;;;;2.15;1.30;;;;;;;9.66;72.75;96325.75;9852725;30;20055;-78
2021/12/24 08:50:54;;;;;;;2.78;1.70;;;;;;;9.22;72.53;96315.94;9852461;30;20389;-78
2021/12/24 08:56:15;;;;;;;2.47;1.63;;;;;;;8.78;72.76;96318.63;9852124;30;20051;-78
2021/12/24 09:01:35;;;;;;;2.97;1.80;;;;;;;8.54;73.38;96317.38;9852380;30;20043;-79
2021/12/24 09:06:57;;;;;;;3.05;1.80;;;;;;;8.43;72.96;96340.41;9863885;30;20055;-78
2021/12/24 09:12:17;;;;;;;3.33;1.70;;;;;;;8.33;73.33;96365.59;9876291;30;20043;-78
2021/12/24 09:17:43;;;;;;;2.63;1.50;;;;;;;8.27;73.62;96324.28;9863852;30;20052;-79
2021/12/24 09:23:05;;;;;;;3.03;1.80;;;;;;;8.70;72.95;96311.94;9863544;30;20058;-79
2021/12/24 09:28:26;;;;;;;2.42;1.60;;;;;;;9.16;71.70;96289.22;9876392;30;20075;-77
2021/12/24 09:33:47;;;;;;;2.50;1.30;;;;;;;9.35;70.87;96304.75;9851531;30;20050;-78
2021/12/24 09:39:09;;;;;;;3.95;1.80;;;;;;;9.50;70.29;96324.97;9863307;30;20135;-78
2021/12/24 09:44:30;;;;;;;2.67;1.30;;;;;;;10.56;69.62;96325.78;9863428;30;20078;-78
2021/12/24 09:49:51;;;;;;;4.18;1.40;;;;;;;10.41;67.21;96315.31;9863039;30;20101;-78
2021/12/24 09:55:15;;;;;;;3.42;1.45;;;;;;;9.91;67.45;96311.63;9862378;30;20116;-78
2021/12/24 10:00:36;;;;;;;2.05;1.30;;;;;;;9.88;67.67;96307.31;9850276;30;20055;-79
2021/12/24 10:05:57;;;;;;;2.75;1.40;;;;;;;12.20;66.69;96305.31;9850677;30;20537;-78
2021/12/24 10:11:20;;;;;;;2.08;1.10;;;;;;;17.59;55.78;96294.25;9863376;30;20491;-77
2021/12/24 10:16:44;;;;;;;2.03;0.98;;;;;;;16.16;53.31;96280.16;9863397;30;20074;-78
2021/12/24 10:22:05;;;;;;;2.72;1.27;;;;;;;16.88;52.55;96285.19;9864388;30;20059;-80
2021/12/24 10:27:31;;;;;;;2.20;1.15;;;;;;;16.06;48.91;96248.25;9894898;29;20099;-81
2021/12/24 10:32:55;;;;;;;1.33;0.90;;;;;;;14.93;51.91;96267.25;9893484;30;20142;-82
2021/12/24 10:38:18;;;;;;;2.80;1.30;;;;;;;15.61;50.41;96273.25;9915335;30;20044;-85
2021/12/24 10:43:40;;;;;;;2.22;1.30;;;;;;;13.78;51.58;96275.78;9882783;30;20044;-86
2021/12/24 10:49:16;;;;;;;1.88;0.98;;;;;;;12.90;52.75;96275.66;9893594;30;20052;-85
2021/12/24 10:54:56;;;;;;;2.13;1.05;;;;;;;12.40;53.60;96292.06;9865083;30;20052;-79
2021/12/24 11:00:45;;;;;;;3.63;1.20;;;;;;;12.25;54.01;96284.50;9898222;30;20054;-83
2021/12/24 11:06:09;;;;;;;2.38;0.82;;;;;;;11.78;54.35;96287.56;9892158;30;20048;-83
2021/12/24 11:11:36;;;;;;;1.60;1.00;;;;;;;11.30;55.25;96290.56;9870021;30;20044;-86
2021/12/24 11:16:58;;;;;;;2.65;1.10;;;;;;;10.98;55.86;96298.28;9897046;30;20051;-83
2021/12/24 11:22:20;;;;;;;1.77;0.90;;;;;;;10.63;56.54;96296.09;9867349;30;20112;-79
2021/12/24 11:27:40;;;;;;;2.45;0.70;;;;;;;10.35;56.69;96289.97;9876763;30;20088;-85
2021/12/24 11:33:01;;;;;;;1.40;0.80;;;;;;;10.14;57.16;96290.38;9900764;29;20115;-87
2021/12/24 11:38:24;;;;;;;1.70;0.80;;;;;;;10.04;58.11;96274.63;9856050;30;20479;-77
2021/12/24 11:43:47;;;;;;;2.70;0.75;;;;;;;9.94;58.07;96274.16;9859960;30;20054;-79
2021/12/24 11:49:08;;;;;;;1.90;0.88;;;;;;;10.13;58.00;96286.09;9859796;30;20059;-79
2021/12/24 11:54:29;;;;;;;2.33;0.80;;;;;;;10.11;58.21;96295.09;9872219;30;20047;-77
2021/12/24 11:59:52;;;;;;;1.95;0.73;;;;;;;10.00;58.18;96280.00;9847302;30;20484;-78
2021/12/24 12:05:28;;;;;;;1.65;0.63;;;;;;;10.00;58.38;96302.28;9859871;30;20044;-79
2021/12/24 12:10:53;;;;;;;1.30;0.70;;;;;;;9.90;58.50;96299.03;9846835;30;20089;-77
2021/12/24 12:16:25;;;;;;;1.40;0.73;;;;;;;9.76;58.57;96306.72;9858491;30;20059;-78
2021/12/24 12:22:31;;;;;;;1.70;0.70;;;;;;;9.58;59.21;96294.72;9846251;30;20048;-78
2021/12/24 12:27:53;;;;;;;1.42;0.70;;;;;;;9.50;59.13;96308.25;9849340;30;20076;-78
2021/12/24 12:33:17;;;;;;;1.65;0.88;;;;;;;9.44;59.49;96300.31;9848082;30;20056;-79
2021/12/24 12:38:43;;;;;;;1.33;0.70;;;;;;;9.39;59.27;96330.03;9846268;30;20048;-77
2021/12/24 12:44:06;;;;;;;1.33;0.75;;;;;;;9.32;60.00;96314.38;9846425;30;20545;-79
2021/12/24 12:49:35;;;;;;;1.75;0.95;;;;;;;9.34;60.08;96303.31;9851502;30;20048;-79
2021/12/24 12:54:58;;;;;;;2.65;1.00;;;;;;;9.48;60.10;96310.94;9893801;29;20035;-85
2021/12/24 13:00:24;;;;;;;1.42;0.75;;;;;;;9.51;59.56;96304.84;9910135;30;20075;-80
2021/12/24 13:05:45;;;;;;;1.30;0.68;;;;;;;9.58;59.64;96300.28;9880526;30;20040;-81
2021/12/24 13:11:15;;;;;;;1.38;0.70;;;;;;;9.61;59.48;96285.09;9867160;30;20381;-77
2021/12/24 13:16:42;;;;;;;1.75;0.77;;;;;;;9.58;59.48;96294.72;9813511;30;20059;-80
2021/12/24 13:27:51;;;;;;;3.20;1.05;;;;;;;9.45;59.27;96276.69;9857467;30;20408;-79
2021/12/24 13:33:14;;;;;;;1.73;0.82;;;;;;;9.45;59.86;96293.38;9841045;30;20055;-80
2021/12/24 13:38:35;;;;;;;2.65;1.15;;;;;;;9.39;59.62;96299.41;9846884;30;20063;-84
2021/12/24 13:43:58;;;;;;;3.55;1.05;;;;;;;9.33;59.47;96301.16;9841603;30;20411;-79
2021/12/24 13:49:42;;;;;;;1.80;1.10;;;;;;;9.23;59.77;96309.00;9917220;29;20056;-83
2021/12/24 13:55:13;;;;;;;3.05;1.08;;;;;;;9.15;59.80;96309.31;9932221;29;20023;-82
2021/12/24 14:13:20;;;;;;;3.55;1.05;;;;;;;8.88;60.22;96319.16;11741262;24;20073;-78
2021/12/24 14:24:11;;;;;;;2.63;1.20;;;;;;;8.73;60.35;96333.66;9875503;30;20028;-86
2021/12/24 14:29:40;;;;;;;2.58;1.30;;;;;;;8.72;60.31;96339.84;9862818;30;20100;-83
2021/12/24 14:41:23;;;;;;;3.53;1.40;;;;;;;8.61;60.64;96333.03;9847104;30;20066;-83
2021/12/24 14:46:57;;;;;;;2.25;1.40;;;;;;;8.58;60.82;96334.97;9838202;30;20036;-83
2021/12/24 14:52:24;;;;;;;3.38;1.23;;;;;;;8.53;60.79;96321.50;9821425;30;20059;-85
2021/12/24 14:57:47;;;;;;;2.70;1.25;;;;;;;8.50;61.30;96331.78;9836721;30;20032;-83
2021/12/24 15:03:15;;;;;;;3.50;1.42;;;;;;;8.45;60.93;96321.78;9824744;30;20067;-83
2021/12/24 15:08:37;;;;;;;3.65;1.63;;;;;;;8.35;61.09;96306.63;9858955;30;20042;-83
2021/12/24 15:14:05;;;;;;;4.65;1.70;;;;;;;8.30;61.24;96314.00;9849509;30;20043;-84
2021/12/24 15:19:28;;;;;;;3.42;1.70;;;;;;;8.19;61.26;96321.06;9862302;30;20028;-84
2021/12/24 15:24:50;;;;;;;3.67;1.63;;;;;;;8.01;61.53;96314.53;9837059;30;20059;-84
2021/12/24 15:30:12;;;;;;;3.65;1.35;;;;;;;7.87;61.43;96310.97;9849211;30;20028;-82
2021/12/24 15:35:34;;;;;;;4.82;1.70;;;;;;;7.75;62.08;96311.75;9860977;30;20036;-83
2021/12/24 16:25:04;;;;;;;4.00;1.77;;;;;;;7.44;63.03;96289.19;11280538;24;20032;-83
2021/12/24 16:30:26;;;;;;;3.88;1.88;;;;;;;7.41;63.37;96301.50;9859582;29;20055;-85
2021/12/24 17:14:21;;;;;;;2.83;1.80;;;;;;;6.80;65.24;96286.94;11893700;24;20027;31
2021/12/24 17:51:26;;;;;;;4.93;2.08;;;;;;;6.56;65.35;96264.78;9952942;24;20052;-84
2021/12/24 17:56:47;;;;;;;4.45;1.90;;;;;;;6.49;65.68;96257.41;10303833;24;20048;-84
2021/12/24 18:02:10;;;;;;;4.25;1.60;;;;;;;6.48;65.92;96263.56;9839937;29;20042;-84
2021/12/24 18:07:32;;;;;;;3.83;1.92;;;;;;;6.41;65.90;96272.84;9827285;30;20045;-83
2021/12/24 18:12:57;;;;;;;3.97;2.28;;;;;;;6.41;66.21;96270.06;9803279;30;20621;-82
2021/12/24 18:18:20;;;;;;;4.85;1.42;;;;;;;6.42;65.68;96272.25;9863637;30;20032;-84
2021/12/24 18:23:43;;;;;;;4.40;1.58;;;;;;;6.44;66.02;96268.84;9839043;30;20079;-82
2021/12/24 18:29:05;;;;;;;3.05;1.40;;;;;;;6.43;65.67;96270.91;9838736;30;20055;-83
2021/12/24 18:34:27;;;;;;;4.47;1.45;;;;;;;6.43;65.85;96281.28;9838560;30;20049;-84
2021/12/24 18:39:49;;;;;;;7.20;1.50;;;;;;;6.43;65.68;96287.53;9819459;30;20071;-82
2021/12/24 18:45:11;;;;;;;4.50;1.30;;;;;;;6.44;65.56;96285.50;9826377;30;20057;-83
2021/12/24 18:50:35;;;;;;;4.45;1.25;;;;;;;6.61;65.27;96276.81;9835158;30;20061;-82
2021/12/24 18:55:57;;;;;;;3.92;1.38;;;;;;;6.84;64.98;96278.81;9827013;30;20060;-83
2021/12/24 19:01:19;;;;;;;3.60;1.20;;;;;;;6.86;64.52;96276.91;9837588;30;20067;-84
2021/12/24 19:06:41;;;;;;;3.28;1.33;;;;;;;6.73;64.53;96285.13;9836971;30;20036;-82
2021/12/24 19:12:03;;;;;;;3.28;1.30;;;;;;;6.60;64.91;96287.19;9813376;30;20033;-83
2021/12/24 19:17:25;;;;;;;5.70;1.58;;;;;;;6.50;64.83;96280.31;9824762;30;20058;-83
2021/12/24 19:22:47;;;;;;;5.32;1.40;;;;;;;6.48;64.68;96302.38;9823845;30;20036;-82
2021/12/24 19:28:11;;;;;;;5.50;1.95;;;;;;;6.52;64.73;96281.16;9836586;30;20098;-84
2021/12/24 19:46:24;;;;;;;5.00;1.55;;;;;;;6.80;64.60;96317.44;11893134;24;19932;31
2021/12/24 19:51:46;;;;;;;2.92;1.90;;;;;;;6.76;64.69;96300.56;9738508;30;20058;-83
2021/12/24 19:57:10;;;;;;;4.65;1.55;;;;;;;6.80;64.87;96301.50;9727565;30;20133;-82
2021/12/24 20:46:50;;;;;;;0.52;0.20;;;;;;;6.46;65.04;96432.53;9780853;30;20037;-83
2021/12/24 20:52:12;;;;;;;2.05;0.20;;;;;;;6.01;65.45;96424.91;9770293;30;20044;-83
2021/12/24 20:57:34;;;;;;;0.80;0.20;;;;;;;5.84;66.44;96432.75;9758107;30;20104;-82
2021/12/24 21:02:56;;;;;;;0.38;0.20;;;;;;;5.65;66.61;96450.22;9745390;30;20058;-83
2021/12/24 21:08:18;;;;;;;1.15;0.35;;;;;;;5.43;67.19;96441.91;9781694;30;20384;-80
2021/12/24 21:13:43;;;;;;;0.93;0.40;;;;;;;5.30;67.10;96461.78;9772291;30;20071;-81
2021/12/24 21:19:04;;;;;;;2.40;0.60;;;;;;;5.14;68.14;96466.97;9772430;30;20057;-78
2021/12/24 21:24:26;;;;;;;1.08;0.55;;;;;;;5.10;68.31;96485.31;9786100;30;20076;-81
2021/12/24 21:29:47;;;;;;;1.25;0.55;;;;;;;5.02;67.94;96482.00;9791477;30;20106;-81
2021/12/24 21:35:08;;;;;;;1.13;0.68;;;;;;;4.94;68.41;96487.72;9793566;30;20052;-78
2021/12/24 21:40:29;;;;;;;1.55;0.63;;;;;;;4.80;68.58;96490.22;9778883;30;20413;-79
2021/12/24 21:45:51;;;;;;;0.75;0.43;;;;;;;4.81;68.97;96497.19;9833565;30;20063;-84
2021/12/24 21:51:13;;;;;;;0.82;0.40;;;;;;;4.77;68.39;96505.22;9854319;30;20113;-81
2021/12/24 21:56:34;;;;;;;1.63;0.52;;;;;;;4.70;68.23;96508.88;9847752;30;20032;-83
2021/12/24 22:01:55;;;;;;;1.08;0.30;;;;;;;4.66;67.85;96525.19;9843804;30;20543;-80
2021/12/24 22:12:57;;;;;;;1.38;0.30;;;;;;;4.39;67.22;96550.22;9828503;30;20403;-78
2021/12/24 22:18:18;;;;;;;1.38;0.30;;;;;;;4.30;67.84;96554.44;9835399;30;20051;-81
2021/12/24 22:23:40;;;;;;;0.50;0.20;;;;;;;4.16;67.88;96552.69;9828223;30;20178;-81
2021/12/24 22:29:01;;;;;;;1.38;0.30;;;;;;;4.13;67.92;96564.88;9828156;30;20048;-81
2021/12/24 22:34:22;;;;;;;0.77;0.28;;;;;;;4.19;68.39;96574.34;9831708;30;20467;-84
2021/12/24 22:39:46;;;;;;;1.85;0.88;;;;;;;4.23;68.28;96571.16;9826270;30;20056;-79
2021/12/24 22:45:07;;;;;;;1.30;0.40;;;;;;;4.21;68.25;96573.75;9813273;30;20068;-79
2021/12/24 22:50:30;;;;;;;1.60;0.80;;;;;;;4.17;67.99;96576.97;9824723;30;20055;-79
2021/12/24 22:55:51;;;;;;;0.82;0.40;;;;;;;4.17;68.15;96576.97;9812370;30;20052;-78
2021/12/24 23:01:12;;;;;;;1.60;0.30;;;;;;;4.22;68.27;96589.75;9825438;30;20048;-81
2021/12/24 23:06:33;;;;;;;1.20;0.40;;;;;;;4.23;68.18;96591.22;9826529;30;20048;-80
2021/12/24 23:11:55;;;;;;;0.65;0.25;;;;;;;4.20;68.54;96605.47;9829830;30;20044;-81
2021/12/24 23:17:24;;;;;;;0.77;0.40;;;;;;;4.25;68.50;96601.69;9834590;30;20056;-82
2021/12/24 23:22:46;;;;;;;1.52;0.30;;;;;;;4.27;68.18;96615.66;9829362;30;20102;-80
2021/12/24 23:28:08;;;;;;;0.82;0.40;;;;;;;4.25;67.68;96627.28;9847876;30;20068;-84
2021/12/24 23:33:30;;;;;;;1.58;0.40;;;;;;;4.08;68.01;96624.63;9831921;30;20113;-82
2021/12/24 23:38:52;;;;;;;1.60;0.40;;;;;;;4.05;67.79;96636.81;9821689;30;20516;-83
2021/12/24 23:44:15;;;;;;;1.00;0.30;;;;;;;4.07;68.07;96634.22;9812374;30;20060;-83
2021/12/24 23:49:38;;;;;;;0.80;0.30;;;;;;;4.05;67.92;96645.09;9822222;30;20063;-82
2021/12/24 23:55:11;;;;;;;1.55;0.30;;;;;;;4.00;67.79;96651.63;9822397;30;20079;-82
